Time;durP1;ratioP1;P1;durP2;ratioP2;P2;SDS_P1;SDS_P2;PMS_P1;PMS_P2;Temp;Humidity;BMP_temperature;BMP_pressure;BME280_temperature;BME280_humidity;BME280_pressure;Samples;Min_cycle;Max_cycle;Signal;HPM_P1;HPM_P2
2021/01/30 00:02:08;;;;;;;3.80;1.27;;;6.70;99.90;;;;;;5030052;28;20208;-68
2021/01/30 00:04:34;;;;;;;8.90;1.97;;;6.60;99.90;;;;;;5032658;28;20437;-68
2021/01/30 00:06:59;;;;;;;3.17;1.07;;;6.60;99.90;;;;;;5043159;28;20437;-68
2021/01/30 00:09:26;;;;;;;3.80;1.33;;;6.50;99.90;;;;;;5031709;28;20661;-68
2021/01/30 00:11:56;;;;;;;1.70;1.20;;;6.50;99.90;;;;;;5039942;28;20715;-68
2021/01/30 00:14:34;;;;;;;1.57;1.13;;;6.50;99.90;;;;;;5030251;28;20460;-68
2021/01/30 00:17:01;;;;;;;2.57;1.40;;;6.50;99.90;;;;;;5042931;28;21552;-68
2021/01/30 00:19:28;;;;;;;3.07;1.30;;;6.40;99.90;;;;;;5029675;28;20452;-68
2021/01/30 00:21:59;;;;;;;2.77;1.20;;;6.40;99.90;;;;;;5030176;28;20503;-68
2021/01/30 00:24:27;;;;;;;2.17;1.80;;;6.40;99.90;;;;;;5037506;28;20488;-68
2021/01/30 00:26:54;;;;;;;1.97;1.87;;;6.40;99.90;;;;;;5032668;28;20515;-68
2021/01/30 00:29:20;;;;;;;2.77;1.20;;;6.40;99.90;;;;;;5029996;28;20429;-68
2021/01/30 00:31:46;;;;;;;3.03;1.00;;;6.30;99.90;;;;;;5041459;28;20472;-68
2021/01/30 00:34:11;;;;;;;2.03;1.03;;;6.20;99.90;;;;;;5038315;28;20452;-68
2021/01/30 00:36:37;;;;;;;2.80;0.90;;;6.20;99.90;;;;;;5032555;28;20198;-68
2021/01/30 00:39:04;;;;;;;2.43;0.77;;;6.20;99.90;;;;;;5044703;28;20634;-68
2021/01/30 00:41:29;;;;;;;1.77;0.90;;;6.20;99.90;;;;;;5031690;28;20424;-68
2021/01/30 00:43:55;;;;;;;1.17;0.90;;;6.20;99.90;;;;;;5029640;28;20448;-68
2021/01/30 00:46:21;;;;;;;2.20;0.80;;;6.10;99.90;;;;;;5044817;28;20173;-68
2021/01/30 00:48:46;;;;;;;2.10;0.90;;;6.10;99.90;;;;;;5046768;28;20173;-68
2021/01/30 00:51:16;;;;;;;2.40;1.27;;;6.10;99.90;;;;;;5029899;28;20265;-69
2021/01/30 00:53:42;;;;;;;1.43;0.70;;;6.10;99.90;;;;;;5035458;28;20198;-68
2021/01/30 00:56:08;;;;;;;1.70;1.00;;;6.10;99.90;;;;;;5029179;28;20815;-68
2021/01/30 00:58:33;;;;;;;0.87;0.87;;;6.10;99.90;;;;;;5029203;28;20209;-68
2021/01/30 01:00:59;;;;;;;2.20;0.73;;;6.20;99.90;;;;;;5032994;28;20173;-69
2021/01/30 01:03:24;;;;;;;2.90;0.80;;;6.30;99.90;;;;;;5034791;28;20606;-69
2021/01/30 01:05:50;;;;;;;1.80;1.00;;;6.30;99.90;;;;;;5033287;28;20667;-69
2021/01/30 01:08:15;;;;;;;1.30;0.80;;;6.30;99.90;;;;;;5034209;28;20185;-69
2021/01/30 01:10:41;;;;;;;1.17;0.83;;;6.30;99.90;;;;;;5040929;28;20190;-68
2021/01/30 01:13:07;;;;;;;2.67;1.10;;;6.40;99.90;;;;;;5033295;28;20190;-68
2021/01/30 01:15:32;;;;;;;4.40;1.67;;;6.40;99.90;;;;;;5039139;28;20896;-69
2021/01/30 01:17:58;;;;;;;1.30;1.00;;;6.40;99.90;;;;;;5053350;28;20683;-68
2021/01/30 01:20:23;;;;;;;0.93;0.70;;;6.30;99.90;;;;;;5037878;28;20291;-68
2021/01/30 01:22:50;;;;;;;2.50;1.03;;;6.30;99.90;;;;;;5051041;28;20280;-69
2021/01/30 01:25:20;;;;;;;1.77;1.10;;;6.30;99.90;;;;;;5035210;28;20194;-68
2021/01/30 01:27:46;;;;;;;1.33;0.90;;;6.30;99.90;;;;;;5023847;28;20850;-68
2021/01/30 01:30:12;;;;;;;1.43;0.77;;;6.30;99.90;;;;;;5032859;28;20436;-69
2021/01/30 01:32:38;;;;;;;2.90;1.00;;;6.30;99.90;;;;;;5048960;28;20665;-69
2021/01/30 01:35:05;;;;;;;2.83;0.80;;;6.40;99.90;;;;;;5016243;28;20457;-69
2021/01/30 01:37:31;;;;;;;4.87;2.00;;;6.40;99.90;;;;;;5036421;28;20229;-69
2021/01/30 01:39:56;;;;;;;1.67;1.00;;;6.40;99.90;;;;;;5033006;28;20475;-69
2021/01/30 01:42:24;;;;;;;2.00;0.90;;;6.40;99.90;;;;;;5045967;28;20182;-69
2021/01/30 01:44:50;;;;;;;2.00;1.00;;;6.50;99.90;;;;;;5048372;28;20263;-68
2021/01/30 01:47:22;;;;;;;1.23;1.07;;;6.50;99.90;;;;;;5049820;28;20450;-69
2021/01/30 01:49:50;;;;;;;1.53;0.97;;;6.50;99.90;;;;;;5032588;28;20811;-69
2021/01/30 01:52:30;;;;;;;1.20;0.80;;;6.40;99.90;;;;;;5032636;28;20447;-68
2021/01/30 01:55:01;;;;;;;1.73;0.90;;;6.40;99.90;;;;;;5033341;28;21018;-69
2021/01/30 01:57:27;;;;;;;4.53;1.07;;;6.40;99.90;;;;;;5046351;28;20472;-69
2021/01/30 01:59:55;;;;;;;3.23;1.00;;;6.30;99.90;;;;;;5033204;28;20446;-69
2021/01/30 02:02:23;;;;;;;3.97;1.47;;;6.30;99.90;;;;;;5047479;28;20937;-68
2021/01/30 02:05:00;;;;;;;1.43;0.90;;;6.30;99.90;;;;;;5035471;28;20464;-69
2021/01/30 02:07:26;;;;;;;0.80;0.73;;;6.20;99.90;;;;;;5029479;28;20428;-69
2021/01/30 02:09:51;;;;;;;1.67;0.63;;;6.10;99.90;;;;;;5041584;28;20535;-68
2021/01/30 02:12:17;;;;;;;3.17;0.80;;;6.10;99.90;;;;;;5048146;28;20515;-67
2021/01/30 02:14:48;;;;;;;0.97;0.70;;;6.10;99.90;;;;;;5037896;28;20233;-67
2021/01/30 02:17:39;;;;;;;1.47;0.60;;;6.10;99.90;;;;;;5034908;28;20201;-67
2021/01/30 02:20:13;;;;;;;1.60;0.70;;;6.10;99.90;;;;;;5031973;28;20431;-67
2021/01/30 02:23:11;;;;;;;0.60;0.60;;;6.20;99.90;;;;;;5031895;28;20790;-67
2021/01/30 02:25:57;;;;;;;1.10;0.90;;;6.10;99.90;;;;;;5039879;28;20542;-67
2021/01/30 02:28:25;;;;;;;1.83;0.57;;;6.20;99.90;;;;;;5036651;28;20436;-67
2021/01/30 02:31:26;;;;;;;1.40;1.30;;;6.20;99.90;;;;;;5045128;28;20428;-67
2021/01/30 02:34:09;;;;;;;0.80;0.60;;;6.20;99.90;;;;;;4976155;28;20443;-67
2021/01/30 02:36:45;;;;;;;1.33;0.87;;;6.20;99.90;;;;;;5037024;28;20571;-67
2021/01/30 02:39:23;;;;;;;0.70;0.70;;;6.20;99.90;;;;;;5023857;28;20439;-68
2021/01/30 02:42:22;;;;;;;1.00;0.60;;;6.20;99.90;;;;;;5045276;28;20428;-67
2021/01/30 02:44:59;;;;;;;1.63;1.23;;;6.20;99.90;;;;;;5039997;28;20458;-67
2021/01/30 02:47:27;;;;;;;0.70;0.60;;;6.10;99.90;;;;;;5040336;28;20868;-67
2021/01/30 02:50:03;;;;;;;0.93;0.80;;;6.00;99.90;;;;;;5033270;28;20444;-67
2021/01/30 02:52:29;;;;;;;1.27;0.60;;;5.90;99.90;;;;;;5045655;28;20546;-67
2021/01/30 02:54:57;;;;;;;0.67;0.40;;;5.90;99.90;;;;;;5031337;28;20818;-67
2021/01/30 02:57:25;;;;;;;1.67;0.80;;;5.80;99.90;;;;;;5030622;28;20467;-67
2021/01/30 02:59:55;;;;;;;1.57;0.67;;;5.80;99.90;;;;;;5021473;28;20491;-67
2021/01/30 03:02:24;;;;;;;2.43;0.80;;;5.80;99.90;;;;;;5033538;28;20985;-67
2021/01/30 03:04:52;;;;;;;1.43;0.80;;;5.90;99.90;;;;;;5042580;28;20458;-67
2021/01/30 03:07:41;;;;;;;1.37;0.53;;;5.80;99.90;;;;;;5028092;28;20868;-67
2021/01/30 03:10:16;;;;;;;0.80;0.60;;;5.80;99.90;;;;;;5021770;28;20432;-68
2021/01/30 03:13:07;;;;;;;1.10;0.80;;;5.80;99.90;;;;;;5042845;28;20437;-67
2021/01/30 03:15:47;;;;;;;2.30;0.83;;;5.80;99.90;;;;;;5029588;28;20560;-68
2021/01/30 03:18:17;;;;;;;1.73;0.70;;;5.80;99.90;;;;;;5036284;28;20464;-68
2021/01/30 03:20:45;;;;;;;0.80;0.70;;;5.90;99.90;;;;;;5031783;28;20532;-68
2021/01/30 03:23:13;;;;;;;0.70;0.70;;;5.90;99.90;;;;;;5033170;28;20511;-68
2021/01/30 03:25:39;;;;;;;1.13;0.60;;;5.90;99.90;;;;;;5035035;28;20503;-68
2021/01/30 03:28:06;;;;;;;1.03;0.80;;;5.90;99.90;;;;;;5038621;28;20957;-68
2021/01/30 03:30:33;;;;;;;4.10;0.90;;;5.90;99.90;;;;;;5037099;28;20468;-68
2021/01/30 03:33:00;;;;;;;1.10;1.00;;;5.90;99.90;;;;;;5025434;28;20437;-68
2021/01/30 03:35:26;;;;;;;2.70;0.90;;;6.00;99.90;;;;;;5029624;28;20464;-68
2021/01/30 03:37:52;;;;;;;1.80;0.90;;;6.00;99.90;;;;;;5030771;28;20515;-68
2021/01/30 03:40:19;;;;;;;2.83;0.80;;;6.10;99.90;;;;;;5030479;28;20453;-68
2021/01/30 03:42:45;;;;;;;4.57;1.10;;;6.10;99.90;;;;;;5032616;28;20552;-68
2021/01/30 03:45:14;;;;;;;2.00;1.23;;;6.10;99.90;;;;;;5014410;28;20451;-70
2021/01/30 03:47:40;;;;;;;1.20;0.90;;;6.10;99.90;;;;;;5029846;28;20232;-68
2021/01/30 03:50:08;;;;;;;0.90;0.70;;;6.10;99.90;;;;;;5030427;28;20425;-68
2021/01/30 03:52:34;;;;;;;1.47;1.00;;;6.10;99.90;;;;;;5046737;28;20518;-68
2021/01/30 03:55:00;;;;;;;1.30;0.77;;;6.10;99.90;;;;;;5042770;28;20550;-68
2021/01/30 03:57:25;;;;;;;1.33;1.10;;;6.10;99.90;;;;;;5024574;28;20457;-69
2021/01/30 03:59:51;;;;;;;0.80;0.80;;;6.00;99.90;;;;;;5030331;28;20584;-68
2021/01/30 04:02:17;;;;;;;0.90;0.80;;;6.10;99.90;;;;;;5046779;28;20648;-68
2021/01/30 04:04:46;;;;;;;0.90;0.70;;;6.00;99.90;;;;;;5030015;28;20197;-68
2021/01/30 04:07:12;;;;;;;1.10;0.70;;;6.00;99.90;;;;;;5029089;28;20447;-68
2021/01/30 04:09:38;;;;;;;1.00;0.60;;;6.10;99.90;;;;;;5033562;28;20436;-69
2021/01/30 04:12:04;;;;;;;1.70;0.60;;;6.00;99.90;;;;;;5033072;28;20805;-68
2021/01/30 04:14:31;;;;;;;2.77;1.00;;;6.00;99.90;;;;;;5042475;28;20710;-68
2021/01/30 04:16:56;;;;;;;1.33;0.60;;;6.00;99.90;;;;;;5035723;28;20476;-69
2021/01/30 04:19:22;;;;;;;2.17;0.63;;;6.00;99.90;;;;;;5029542;28;20431;-69
2021/01/30 04:21:47;;;;;;;3.57;0.60;;;6.00;99.90;;;;;;5031753;28;20186;-68
2021/01/30 04:24:13;;;;;;;1.00;0.90;;;6.00;99.90;;;;;;5037442;28;20727;-68
2021/01/30 04:26:39;;;;;;;2.83;0.97;;;6.00;99.90;;;;;;5046448;28;20246;-69
2021/01/30 04:29:05;;;;;;;3.80;0.83;;;6.00;99.90;;;;;;5043073;28;20741;-68
2021/01/30 04:31:30;;;;;;;1.93;0.80;;;6.00;99.90;;;;;;5032972;28;20424;-68
2021/01/30 04:33:56;;;;;;;2.70;0.87;;;6.00;99.90;;;;;;5045152;28;20558;-68
2021/01/30 04:36:22;;;;;;;5.73;1.13;;;6.00;99.90;;;;;;5038100;28;20190;-69
2021/01/30 04:38:49;;;;;;;2.03;0.80;;;6.00;99.90;;;;;;5034210;28;20175;-68
2021/01/30 04:41:27;;;;;;;1.63;0.83;;;6.00;99.90;;;;;;5050316;28;20447;-68
2021/01/30 04:44:10;;;;;;;1.13;0.80;;;6.00;99.90;;;;;;5044963;28;20507;-68
2021/01/30 04:46:52;;;;;;;1.07;0.97;;;6.10;99.90;;;;;;5041106;28;20511;-68
2021/01/30 04:49:26;;;;;;;2.87;1.07;;;6.00;99.90;;;;;;5049299;28;20428;-68
2021/01/30 04:52:10;;;;;;;3.40;1.20;;;6.00;99.90;;;;;;5036906;28;20438;-68
2021/01/30 04:54:53;;;;;;;5.27;0.87;;;6.00;99.90;;;;;;5048255;28;20451;-69
2021/01/30 04:57:43;;;;;;;1.70;0.97;;;6.00;99.90;;;;;;5038478;28;20456;-68
2021/01/30 05:00:38;;;;;;;1.67;0.50;;;6.00;99.90;;;;;;5024756;28;20420;-68
2021/01/30 05:03:22;;;;;;;2.50;0.90;;;6.00;99.90;;;;;;5013507;28;20428;-68
2021/01/30 05:05:54;;;;;;;2.27;0.90;;;6.00;99.90;;;;;;5016166;28;20452;-68
2021/01/30 05:08:27;;;;;;;3.90;1.10;;;6.00;99.90;;;;;;5033284;28;20842;-68
2021/01/30 05:10:58;;;;;;;2.17;1.30;;;6.00;99.90;;;;;;5033388;28;20435;-68
2021/01/30 05:13:34;;;;;;;1.73;1.17;;;6.00;99.90;;;;;;5039039;28;20424;-68
2021/01/30 05:16:07;;;;;;;2.10;0.90;;;6.00;99.90;;;;;;5048461;28;20451;-68
2021/01/30 05:18:37;;;;;;;2.93;0.90;;;6.00;99.90;;;;;;5038178;28;20552;-68
2021/01/30 05:21:16;;;;;;;3.73;1.60;;;6.00;99.90;;;;;;5033077;28;20789;-69
2021/01/30 05:23:47;;;;;;;6.50;1.60;;;6.00;99.90;;;;;;5032609;28;20799;-69
2021/01/30 05:26:25;;;;;;;1.73;1.00;;;6.00;99.90;;;;;;5032923;28;20440;-68
2021/01/30 05:29:24;;;;;;;2.30;1.50;;;6.00;99.90;;;;;;5038073;28;20463;-68
2021/01/30 05:32:08;;;;;;;6.03;1.67;;;6.00;99.90;;;;;;5032901;28;20867;-69
2021/01/30 05:34:51;;;;;;;2.70;0.90;;;6.00;99.90;;;;;;5032498;28;20977;-68
2021/01/30 05:37:47;;;;;;;2.10;1.30;;;5.90;99.90;;;;;;5046325;28;20463;-68
2021/01/30 05:40:33;;;;;;;4.13;2.10;;;6.00;99.90;;;;;;5017015;28;21021;-69
2021/01/30 05:43:28;;;;;;;3.60;1.47;;;6.00;99.90;;;;;;5038300;28;20433;-68
2021/01/30 05:45:57;;;;;;;7.70;1.67;;;6.00;99.90;;;;;;5048469;28;20462;-68
2021/01/30 05:48:27;;;;;;;6.33;2.97;;;6.00;99.90;;;;;;5039982;28;20582;-68
2021/01/30 05:50:58;;;;;;;4.20;1.60;;;6.00;99.90;;;;;;5031641;28;20449;-69
2021/01/30 05:53:27;;;;;;;6.20;1.80;;;6.00;99.90;;;;;;5032499;28;20460;-69
2021/01/30 05:55:54;;;;;;;4.33;1.40;;;6.00;99.90;;;;;;5028011;28;20989;-68
2021/01/30 05:58:22;;;;;;;10.63;1.83;;;5.90;99.90;;;;;;5027909;28;20836;-68
2021/01/30 06:00:48;;;;;;;4.37;1.80;;;6.00;99.90;;;;;;5047727;28;20482;-68
2021/01/30 06:03:24;;;;;;;12.53;1.80;;;6.00;99.90;;;;;;5029058;28;21019;-68
2021/01/30 06:05:52;;;;;;;6.73;1.40;;;6.00;99.90;;;;;;5045487;28;20198;-68
2021/01/30 06:08:27;;;;;;;3.53;1.80;;;6.10;99.90;;;;;;5041803;28;20938;-68
2021/01/30 06:11:11;;;;;;;7.80;1.73;;;6.10;99.90;;;;;;5039488;28;20454;-69
2021/01/30 06:14:00;;;;;;;5.27;1.37;;;6.10;99.90;;;;;;5043465;28;20455;-68
2021/01/30 06:16:45;;;;;;;5.67;1.33;;;6.10;99.90;;;;;;5040067;28;20444;-68
2021/01/30 06:19:15;;;;;;;5.67;2.70;;;6.10;99.90;;;;;;5045649;28;20433;-68
2021/01/30 06:21:42;;;;;;;6.70;1.60;;;6.10;99.90;;;;;;5032171;28;20519;-69
2021/01/30 06:24:11;;;;;;;5.87;1.90;;;6.10;99.90;;;;;;5048342;28;20439;-67
2021/01/30 06:26:44;;;;;;;8.53;2.43;;;6.10;99.90;;;;;;5044724;28;20759;-69
2021/01/30 06:29:29;;;;;;;3.80;1.30;;;6.10;99.90;;;;;;5031937;28;20437;-68
2021/01/30 06:31:55;;;;;;;5.00;1.60;;;6.20;99.90;;;;;;5040816;28;20443;-68
2021/01/30 06:34:33;;;;;;;5.07;2.47;;;6.20;99.90;;;;;;5035878;28;20463;-68
2021/01/30 06:37:09;;;;;;;4.00;1.50;;;6.20;99.90;;;;;;5036513;28;20472;-68
2021/01/30 06:39:38;;;;;;;6.03;2.00;;;6.20;99.90;;;;;;5032456;28;21046;-68
2021/01/30 06:42:22;;;;;;;8.60;2.47;;;6.20;99.90;;;;;;5036902;28;20770;-68
2021/01/30 06:44:49;;;;;;;2.73;1.80;;;6.20;99.90;;;;;;5025146;28;20551;-70
2021/01/30 06:47:17;;;;;;;7.47;2.10;;;6.20;99.90;;;;;;5030865;28;20965;-68
2021/01/30 06:49:48;;;;;;;9.57;2.40;;;6.20;99.90;;;;;;5044270;28;21037;-67
2021/01/30 06:52:33;;;;;;;8.47;2.23;;;6.20;99.90;;;;;;5047704;28;20437;-68
2021/01/30 06:55:04;;;;;;;5.10;2.70;;;6.20;99.90;;;;;;5037821;28;20454;-68
2021/01/30 06:57:47;;;;;;;5.60;1.77;;;6.20;99.90;;;;;;5043082;28;20464;-68
2021/01/30 07:00:24;;;;;;;10.23;2.53;;;6.20;99.90;;;;;;5039374;28;20436;-67
2021/01/30 07:03:02;;;;;;;4.87;1.77;;;6.20;99.90;;;;;;5044350;28;20487;-68
2021/01/30 07:05:34;;;;;;;7.40;2.27;;;6.20;99.90;;;;;;5049195;28;20455;-67
2021/01/30 07:07:59;;;;;;;6.37;2.40;;;6.20;99.90;;;;;;5040835;28;20452;-68
2021/01/30 07:10:51;;;;;;;6.13;2.17;;;6.20;99.90;;;;;;5033732;28;20935;-68
2021/01/30 07:13:42;;;;;;;7.93;2.00;;;6.20;99.90;;;;;;5043707;28;20178;-68
2021/01/30 07:16:19;;;;;;;4.57;2.00;;;6.20;99.90;;;;;;5034194;28;20456;-68
2021/01/30 07:19:11;;;;;;;4.50;1.93;;;6.20;99.90;;;;;;5032505;28;20504;-68
2021/01/30 07:21:56;;;;;;;7.37;2.33;;;6.20;99.90;;;;;;5041583;28;20759;-69
2021/01/30 07:24:51;;;;;;;5.77;2.10;;;6.20;99.90;;;;;;5030688;28;20444;-69
2021/01/30 07:27:46;;;;;;;5.20;1.80;;;6.20;99.90;;;;;;5028673;28;20421;-70
2021/01/30 07:30:21;;;;;;;8.57;3.87;;;6.30;99.90;;;;;;5032676;28;20429;-70
2021/01/30 07:32:53;;;;;;;3.60;1.90;;;6.30;99.90;;;;;;5026907;28;20432;-70
2021/01/30 07:35:41;;;;;;;4.17;2.10;;;6.30;99.90;;;;;;5038019;28;20455;-70
2021/01/30 07:38:10;;;;;;;12.17;2.53;;;6.30;99.90;;;;;;5042978;28;21025;-70
2021/01/30 07:40:49;;;;;;;6.73;2.27;;;6.40;99.90;;;;;;5035003;28;20428;-70
2021/01/30 07:43:25;;;;;;;3.80;1.90;;;6.40;99.90;;;;;;5014898;28;20461;-70
2021/01/30 07:46:00;;;;;;;12.20;3.20;;;6.40;99.90;;;;;;5022767;28;20462;-70
2021/01/30 07:48:31;;;;;;;9.67;3.07;;;6.50;99.90;;;;;;5043863;28;20427;-70
2021/01/30 07:51:03;;;;;;;11.20;2.23;;;6.50;99.90;;;;;;5032338;28;20448;-70
2021/01/30 07:53:29;;;;;;;9.70;2.77;;;6.60;99.90;;;;;;5035434;28;20436;-70
2021/01/30 07:56:17;;;;;;;12.87;3.67;;;6.60;99.90;;;;;;5041075;28;20456;-70
2021/01/30 07:59:20;;;;;;;5.13;2.60;;;6.60;99.90;;;;;;5030029;28;20206;-70
2021/01/30 08:02:16;;;;;;;4.83;2.00;;;6.70;99.90;;;;;;5017841;28;20535;-69
2021/01/30 08:05:01;;;;;;;11.17;2.80;;;6.80;99.90;;;;;;5039383;28;20824;-70
2021/01/30 08:08:02;;;;;;;6.77;2.03;;;6.80;99.90;;;;;;5015612;28;20498;-69
2021/01/30 08:11:01;;;;;;;8.70;2.20;;;6.90;99.90;;;;;;4979159;28;20449;-70
2021/01/30 08:13:50;;;;;;;7.87;2.50;;;6.90;99.90;;;;;;5039799;28;20939;-69
2021/01/30 08:16:40;;;;;;;5.23;2.50;;;7.00;99.90;;;;;;5030619;28;20433;-70
2021/01/30 08:19:12;;;;;;;3.57;2.93;;;7.00;99.90;;;;;;5048041;28;20443;-70
2021/01/30 08:21:50;;;;;;;10.50;3.17;;;7.00;99.90;;;;;;5048488;28;20420;-69
2021/01/30 08:24:18;;;;;;;10.60;2.40;;;7.10;99.90;;;;;;5037160;28;20986;-70
2021/01/30 08:26:47;;;;;;;5.77;2.80;;;7.10;99.90;;;;;;5031529;28;20440;-69
2021/01/30 08:29:18;;;;;;;4.53;2.13;;;7.10;99.90;;;;;;5029858;28;20433;-69
2021/01/30 08:31:44;;;;;;;8.30;3.40;;;7.10;99.90;;;;;;5040595;28;20869;-70
2021/01/30 08:34:18;;;;;;;6.60;2.10;;;7.10;99.90;;;;;;5032277;28;20544;-70
2021/01/30 08:36:49;;;;;;;9.20;2.60;;;7.20;99.90;;;;;;5038878;28;20506;-70
2021/01/30 08:39:33;;;;;;;8.10;3.37;;;7.20;99.90;;;;;;5043406;28;20424;-69
2021/01/30 08:42:00;;;;;;;8.23;2.80;;;7.20;99.90;;;;;;5042864;28;20422;-69
2021/01/30 08:44:33;;;;;;;10.23;2.73;;;7.20;99.90;;;;;;5040288;28;20447;-69
2021/01/30 08:47:16;;;;;;;5.87;3.43;;;7.10;99.90;;;;;;5043751;28;20809;-69
2021/01/30 08:50:22;;;;;;;12.80;2.20;;;7.10;99.90;;;;;;5041491;28;20804;-69
2021/01/30 08:52:54;;;;;;;7.90;2.53;;;7.10;99.90;;;;;;5012316;28;20551;-69
2021/01/30 08:55:43;;;;;;;4.60;2.83;;;7.10;99.90;;;;;;5040633;28;20455;-69
2021/01/30 08:58:31;;;;;;;4.20;2.70;;;7.10;99.90;;;;;;5042121;28;20517;-69
2021/01/30 09:01:01;;;;;;;6.33;2.47;;;7.10;99.90;;;;;;5045205;28;20437;-69
2021/01/30 09:03:48;;;;;;;10.17;4.60;;;7.10;99.90;;;;;;5040053;28;20420;-69
2021/01/30 09:06:41;;;;;;;7.27;2.90;;;7.20;99.90;;;;;;5032354;28;20940;-69
2021/01/30 09:09:25;;;;;;;5.67;2.83;;;7.20;99.90;;;;;;5047775;28;20493;-69
2021/01/30 09:11:55;;;;;;;5.97;2.80;;;7.20;99.90;;;;;;5025068;28;20432;-69
2021/01/30 09:14:20;;;;;;;7.20;3.23;;;7.20;99.90;;;;;;5046583;22;20478;-66
2021/01/30 09:16:52;;;;;;;13.63;3.60;;;7.20;99.90;;;;;;5005759;28;20855;-67
2021/01/30 09:19:57;;;;;;;11.10;3.40;;;7.30;99.90;;;;;;5009699;28;20225;-66
2021/01/30 09:22:35;;;;;;;10.80;2.60;;;7.40;99.90;;;;;;5002839;28;20457;-67
2021/01/30 09:25:23;;;;;;;7.93;3.00;;;7.40;99.90;;;;;;5010367;28;20461;-66
2021/01/30 09:27:59;;;;;;;7.63;3.23;;;7.40;99.90;;;;;;5012780;28;20438;-66
2021/01/30 09:30:35;;;;;;;7.70;2.73;;;7.50;99.90;;;;;;5012971;28;20433;-66
2021/01/30 09:33:07;;;;;;;5.83;2.97;;;7.50;99.90;;;;;;5012337;28;20710;-67
2021/01/30 09:35:35;;;;;;;13.57;4.00;;;7.60;99.90;;;;;;5011821;28;20457;-68
2021/01/30 09:38:23;;;;;;;11.63;3.60;;;7.80;99.90;;;;;;5013479;28;20485;-66
2021/01/30 09:40:49;;;;;;;9.03;3.53;;;7.90;99.90;;;;;;5012990;28;20465;-65
2021/01/30 09:43:21;;;;;;;12.30;3.60;;;8.00;99.90;;;;;;5013019;28;20433;-65
2021/01/30 09:45:51;;;;;;;6.63;2.33;;;8.00;99.90;;;;;;5012164;28;20927;-66
2021/01/30 09:48:18;;;;;;;6.97;3.43;;;8.00;99.90;;;;;;5012655;28;20564;-67
2021/01/30 09:50:54;;;;;;;12.03;3.33;;;8.00;99.90;;;;;;5012501;28;20978;-66
2021/01/30 09:53:35;;;;;;;7.80;3.07;;;8.10;99.90;;;;;;5012578;28;20430;-65
2021/01/30 09:56:11;;;;;;;6.50;2.87;;;8.10;99.90;;;;;;5011763;28;20475;-67
2021/01/30 09:58:39;;;;;;;10.43;3.00;;;8.10;99.90;;;;;;5012897;28;20457;-68
2021/01/30 10:04:40;;;;;;;12.83;3.40;;;8.20;99.90;;;;;;5732595;22;20497;-69
2021/01/30 10:07:08;;;;;;;4.80;2.80;;;8.20;99.90;;;;;;4992709;28;20490;-69
2021/01/30 10:09:44;;;;;;;12.00;3.20;;;8.10;99.90;;;;;;4993241;28;20447;-69
2021/01/30 10:12:11;;;;;;;5.93;3.07;;;8.00;99.90;;;;;;4992579;28;20465;-69
2021/01/30 10:14:46;;;;;;;7.50;2.97;;;7.90;99.90;;;;;;4992165;28;20451;-70
2021/01/30 10:17:33;;;;;;;9.57;3.50;;;7.80;99.90;;;;;;5040413;22;20934;-69
2021/01/30 10:20:04;;;;;;;5.90;3.10;;;7.70;99.90;;;;;;5032595;28;20436;-69
2021/01/30 10:22:42;;;;;;;7.13;2.90;;;7.70;99.90;;;;;;5040245;28;20436;-70
2021/01/30 10:25:16;;;;;;;13.13;4.37;;;7.70;99.90;;;;;;5038191;28;20492;-69
2021/01/30 10:27:42;;;;;;;5.73;2.73;;;7.70;99.90;;;;;;5031783;28;20530;-69
2021/01/30 10:30:11;;;;;;;9.43;3.50;;;7.80;99.90;;;;;;5031859;28;20516;-70
2021/01/30 10:32:47;;;;;;;6.17;3.10;;;7.80;99.90;;;;;;5031725;28;20190;-70
2021/01/30 10:35:23;;;;;;;8.57;3.17;;;7.70;99.90;;;;;;5030524;28;20841;-70
2021/01/30 10:37:54;;;;;;;10.27;3.90;;;7.70;99.90;;;;;;5005260;28;20582;-70
2021/01/30 10:40:32;;;;;;;7.13;3.40;;;7.70;99.90;;;;;;5028456;28;20445;-70
2021/01/30 10:43:01;;;;;;;14.83;4.33;;;7.70;99.90;;;;;;5029946;28;20520;-70
2021/01/30 10:45:30;;;;;;;11.77;3.60;;;7.60;99.90;;;;;;5030433;28;20528;-70
2021/01/30 10:48:08;;;;;;;13.50;3.77;;;7.60;99.90;;;;;;5028527;28;20449;-70
2021/01/30 10:50:40;;;;;;;14.43;3.40;;;7.60;99.90;;;;;;5030488;28;20429;-70
2021/01/30 10:53:35;;;;;;;6.37;2.97;;;7.60;99.90;;;;;;5030699;28;20441;-70
2021/01/30 10:56:20;;;;;;;6.30;3.00;;;7.60;99.90;;;;;;5016516;28;20523;-72
2021/01/30 10:58:47;;;;;;;14.23;2.93;;;7.70;99.90;;;;;;5018603;28;20856;-70
2021/01/30 11:01:31;;;;;;;12.53;4.43;;;7.70;99.90;;;;;;5032200;28;21086;-70
2021/01/30 11:04:02;;;;;;;10.80;3.33;;;7.80;99.90;;;;;;5040810;28;20768;-70
2021/01/30 11:06:29;;;;;;;6.80;2.80;;;7.80;99.90;;;;;;5030819;28;20461;-70
2021/01/30 11:08:58;;;;;;;6.47;3.40;;;7.90;99.90;;;;;;5031002;28;20515;-70
2021/01/30 11:11:31;;;;;;;8.83;4.50;;;8.10;99.90;;;;;;5030754;28;20947;-70
2021/01/30 11:13:58;;;;;;;6.50;3.17;;;8.10;99.90;;;;;;5029188;28;20437;-70
2021/01/30 11:16:33;;;;;;;17.47;5.47;;;8.20;99.90;;;;;;5042373;28;20882;-70
2021/01/30 11:18:58;;;;;;;14.37;5.50;;;8.10;99.90;;;;;;5024500;28;20432;-70
2021/01/30 11:21:38;;;;;;;8.93;3.40;;;8.10;99.90;;;;;;5030032;28;20444;-70
2021/01/30 11:24:20;;;;;;;12.80;3.90;;;8.10;99.90;;;;;;5028662;28;20711;-70
2021/01/30 11:26:45;;;;;;;7.70;4.53;;;8.10;99.90;;;;;;5030421;28;20456;-70
2021/01/30 11:29:41;;;;;;;18.23;8.33;;;8.10;99.90;;;;;;5030446;28;20959;-70
2021/01/30 11:32:11;;;;;;;9.50;4.10;;;8.10;99.90;;;;;;5030330;28;20257;-70
2021/01/30 11:34:38;;;;;;;8.50;3.77;;;8.00;99.90;;;;;;5029473;28;20481;-70
2021/01/30 11:37:05;;;;;;;6.20;3.70;;;8.00;99.90;;;;;;5029817;28;20469;-71
2021/01/30 11:39:34;;;;;;;16.03;4.57;;;8.00;99.90;;;;;;5030094;28;20437;-70
2021/01/30 11:42:00;;;;;;;10.63;4.47;;;8.00;99.90;;;;;;5029973;28;20432;-70
2021/01/30 11:44:26;;;;;;;7.87;3.87;;;8.10;99.90;;;;;;5014834;28;20431;-70
2021/01/30 11:46:52;;;;;;;11.80;5.00;;;8.10;99.90;;;;;;5040343;28;20578;-70
2021/01/30 11:49:18;;;;;;;11.63;3.50;;;8.20;99.90;;;;;;5033583;28;20221;-70
2021/01/30 11:51:44;;;;;;;10.13;3.70;;;8.20;99.90;;;;;;5037911;28;20535;-70
2021/01/30 11:54:11;;;;;;;8.20;3.60;;;8.10;99.90;;;;;;5046439;28;20209;-70
2021/01/30 11:56:38;;;;;;;11.60;4.50;;;8.10;99.90;;;;;;5030211;28;20590;-70
2021/01/30 11:59:04;;;;;;;13.37;3.90;;;8.00;99.90;;;;;;5030037;28;21024;-70
2021/01/30 12:01:31;;;;;;;13.00;3.73;;;8.10;99.90;;;;;;5030051;28;20460;-70
2021/01/30 12:03:58;;;;;;;9.33;3.40;;;8.20;99.90;;;;;;5028906;28;20174;-71
2021/01/30 12:06:23;;;;;;;10.53;5.63;;;8.20;99.90;;;;;;5029406;28;20440;-70
2021/01/30 12:08:49;;;;;;;12.23;3.73;;;8.10;99.90;;;;;;5030154;28;20784;-70
2021/01/30 12:11:14;;;;;;;12.27;3.80;;;8.00;99.90;;;;;;5029118;28;20185;-70
2021/01/30 12:13:40;;;;;;;5.00;2.60;;;8.00;99.90;;;;;;5029237;28;20252;-70
2021/01/30 12:16:06;;;;;;;7.87;3.23;;;7.90;99.90;;;;;;5029919;28;20217;-70
2021/01/30 12:18:33;;;;;;;10.73;2.70;;;7.90;99.90;;;;;;5029542;28;20293;-70
2021/01/30 12:20:59;;;;;;;7.30;2.90;;;7.90;99.90;;;;;;5028377;28;20174;-70
2021/01/30 12:23:25;;;;;;;6.63;2.40;;;7.80;99.90;;;;;;5028682;28;20431;-70
2021/01/30 12:25:50;;;;;;;7.87;3.17;;;7.80;99.90;;;;;;5029438;28;20437;-69
2021/01/30 12:28:20;;;;;;;6.97;2.50;;;7.80;99.90;;;;;;5029618;28;20178;-71
2021/01/30 12:30:46;;;;;;;17.27;4.80;;;7.60;99.90;;;;;;5029992;28;20529;-71
2021/01/30 12:33:11;;;;;;;5.03;2.70;;;7.50;99.90;;;;;;5028981;28;20444;-70
2021/01/30 12:35:37;;;;;;;6.17;3.07;;;7.40;99.90;;;;;;5028625;28;20181;-70
2021/01/30 12:38:05;;;;;;;7.70;3.37;;;7.40;99.90;;;;;;5029498;28;20724;-70
2021/01/30 12:40:34;;;;;;;5.47;2.53;;;7.30;99.90;;;;;;5029342;28;20273;-70
2021/01/30 12:42:59;;;;;;;6.77;2.60;;;7.30;99.90;;;;;;5029540;28;20475;-70
2021/01/30 12:45:26;;;;;;;8.17;3.50;;;7.30;99.90;;;;;;5028868;28;20483;-70
2021/01/30 12:47:51;;;;;;;5.17;2.43;;;7.40;99.90;;;;;;5029262;28;20206;-70
2021/01/30 12:50:20;;;;;;;7.50;2.70;;;7.40;99.90;;;;;;5029256;28;20536;-70
2021/01/30 12:52:45;;;;;;;4.30;2.50;;;7.30;99.90;;;;;;5029774;28;20676;-70
2021/01/30 12:55:12;;;;;;;15.37;5.53;;;7.30;99.90;;;;;;5028877;28;20476;-70
2021/01/30 12:57:38;;;;;;;7.03;3.73;;;7.30;99.90;;;;;;5029477;28;20296;-70
2021/01/30 13:00:07;;;;;;;3.37;2.73;;;7.30;99.90;;;;;;5032265;28;22214;-70
2021/01/30 13:02:32;;;;;;;6.87;3.20;;;7.30;99.90;;;;;;5033356;28;20182;-70
2021/01/30 13:04:58;;;;;;;7.10;3.30;;;7.30;99.90;;;;;;5032155;28;20773;-70
2021/01/30 13:07:23;;;;;;;11.33;4.20;;;7.20;99.90;;;;;;5015322;28;20206;-70
2021/01/30 13:09:49;;;;;;;11.60;3.50;;;7.20;99.90;;;;;;5032432;28;20189;-70
2021/01/30 13:12:17;;;;;;;14.27;4.13;;;7.20;99.90;;;;;;5032695;28;20182;-70
2021/01/30 13:14:42;;;;;;;9.23;3.10;;;7.20;99.90;;;;;;5031354;28;20333;-70
2021/01/30 13:17:08;;;;;;;4.80;3.57;;;7.30;99.90;;;;;;5031678;28;20551;-70
2021/01/30 13:19:35;;;;;;;9.00;3.53;;;7.30;99.90;;;;;;5033208;28;20623;-71
2021/01/30 13:22:01;;;;;;;4.97;2.93;;;7.30;99.90;;;;;;5032667;28;20221;-70
2021/01/30 13:24:26;;;;;;;8.10;3.37;;;7.20;99.90;;;;;;5032269;28;20429;-71
2021/01/30 13:26:52;;;;;;;7.17;3.97;;;7.20;99.90;;;;;;5032789;28;20214;-71
2021/01/30 13:29:18;;;;;;;8.33;3.90;;;7.20;99.90;;;;;;5032847;28;20229;-71